SANDSTONE Weather Reports


time (UTC)temp
C
wind
direction
speed
KPH
gust
KPH
rain 1hr
cm
rain 24hr
cm
rain mn
cm
humidity
%
barometer
mb
20260503050057 5 0 0.0 3.2 0.00 0.00 0.00 68 1008.1
20260503044622 4 186 1.6 6.4 0.00 0.00 0.00 72 1008.5
20260503043054 3 345 1.6 4.8 0.00 0.00 0.00 72 1008.2
20260503041557 3 345 0.0 3.2 0.00 0.00 0.00 73 1008.4
20260503040105 3 0 0.0 3.2 0.00 0.00 0.00 70 1008.4
20260503034559 3 0 0.0 3.2 0.00 0.00 0.00 71 1008.5
20260503033054 3 345 1.6 4.8 0.00 0.00 0.00 71 1009.0
20260503031557 3 0 0.0 3.2 0.00 0.00 0.00 69 1009.3
20260503030105 4 0 0.0 4.8 0.00 0.00 0.00 70 1009.5
20260503024601 3 46 0.0 0.0 0.00 0.00 0.00 69 1009.5
20260503023059 3 0 0.0 3.2 0.00 0.00 0.00 68 1009.8
20260503021556 4 0 0.0 6.4 0.00 0.00 0.00 64 1010.1
20260503014601 4 69 0.0 3.2 0.00 0.00 0.00 65 1010.2
20260503013107 4 0 0.0 6.4 0.00 0.00 0.00 62 1010.4
20260503011555 4 50 1.6 8.0 0.00 0.00 0.00 61 1010.4
20260503010054 5 23 1.6 8.0 0.00 0.00 0.00 57 1010.7
20260503004613 5 11 1.6 6.4 0.00 0.00 0.00 56 1010.8
20260503003058 6 22 3.2 9.7 0.00 0.00 0.00 53 1011.0
20260503001558 6 52 3.2 8.0 0.00 0.00 0.00 51 1011.1
20260503000104 6 53 3.2 9.7 0.00 0.00 0.00 49 1011.1
20260502234616 7 38 4.8 12.9 0.00 0.00 0.00 49 1011.3
20260502233054 7 11 4.8 16.1 0.00 0.00 0.00 51 1011.5
20260502231556 7 94 3.2 14.5 0.00 0.00 0.00 50 1011.4
20260502230055 7 101 4.8 19.3 0.00 0.00 0.00 50 1011.6
20260502224559 7 101 6.4 16.1 0.00 0.00 0.00 49 1011.8
20260502223105 7 48 6.4 14.5 0.00 0.00 0.00 52 1012.0
20260502221600 7 62 6.4 16.1 0.00 0.00 0.00 50 1011.9
20260502220103 7 82 4.8 17.7 0.00 0.00 0.00 51 1012.0
20260502214615 7 15 6.4 17.7 0.00 0.00 0.00 52 1012.1
20260502213121 7 26 6.4 16.1 0.00 0.00 0.00 50 1012.2
20260502211558 7 36 4.8 12.9 0.00 0.00 0.00 51 1012.5
20260502210054 7 52 8.0 17.7 0.00 0.00 0.00 52 1012.6
20260502204555 7 134 4.8 12.9 0.00 0.00 0.00 50 1013.0
20260502203114 9 64 4.8 16.1 0.00 0.00 0.00 46 1012.9
20260502201556 9 150 1.6 17.7 0.00 0.00 0.00 45 1012.9
20260502200059 10 85 3.2 16.1 0.00 0.00 0.00 38 1013.0
20260502194558 10 65 4.8 12.9 0.00 0.00 0.00 44 1013.4
20260502193102 12 343 3.2 16.1 0.00 0.00 0.00 30 1013.4
20260502191602 12 303 6.4 16.1 0.00 0.00 0.00 30 1013.6
20260502190056 12 57 4.8 17.7 0.00 0.00 0.00 36 1013.8
20260502184558 11 38 3.2 11.3 0.00 0.00 0.00 43 1014.2
20260502183107 11 78 4.8 12.9 0.00 0.00 0.00 41 1014.3
20260502181557 11 70 3.2 11.3 0.00 0.00 0.00 41 1014.2
20260502163111 9 53 3.2 14.5 0.00 0.00 0.00 47 1015.4
20260502161621 8 94 4.8 14.5 0.00 0.00 0.00 47 1015.5
20260502151601 7 130 6.4 11.3 0.00 0.00 0.00 50 1016.2
20260502123113 0 190 0.0 4.8 0.00 0.00 0.00 78 1017.5
20260502121558 -1 0 0.0 4.8 0.00 0.00 0.00 83 1017.5
20260502120114 -2 253 0.0 3.2 0.00 0.00 0.00 86 1017.7
20260502114554 -2 289 0.0 1.6 0.00 0.00 0.00 87 1017.7
20260502113054 -3 0 0.0 0.0 0.00 0.00 0.00 87 1017.6
20260502111600 -3 0 0.0 1.6 0.00 0.00 0.00 88 1017.6
20260502110058 -3 0 0.0 0.0 0.00 0.00 0.00 87 1017.5
20260502104557 -3 0 0.0 1.6 0.00 0.00 0.00 87 1017.5
20260502103055 -3 0 0.0 0.0 0.00 0.00 0.00 87 1017.4
20260502101559 -3 0 0.0 0.0 0.00 0.00 0.00 87 1017.5
20260502100104 -3 0 0.0 0.0 0.00 0.00 0.00 87 1017.5
20260502070110 -2 0 0.0 1.6 0.00 0.00 0.00 84 1017.7
20260502064555 -2 0 0.0 0.0 0.00 0.00 0.00 84 1017.7
20260502063057 -2 0 0.0 1.6 0.00 0.00 0.00 84 1017.9
20260502061556 -2 0 0.0 3.2 0.00 0.00 0.00 83 1018.0
20260502060056 -2 0 0.0 3.2 0.00 0.00 0.00 83 1018.0
20260502054556 -2 0 0.0 0.0 0.00 0.00 0.00 83 1018.1
20260502053100 -2 0 0.0 0.0 0.00 0.00 0.00 82 1018.0
20260502051603 -2 0 0.0 1.6 0.00 0.00 0.00 80 1018.3